sensor_id;sensor_type;location;lat;lon;timestamp;pressure;altitude;pressure_sealevel;temperature;humidity
18509;BME280;9383;50.928;12.116;2023-04-22T00:00:45;98521.84;;;6.51;86.08
18509;BME280;9383;50.928;12.116;2023-04-22T00:03:12;98508.81;;;6.46;85.99
18509;BME280;9383;50.928;12.116;2023-04-22T00:05:40;98510.66;;;6.41;86.11
18509;BME280;9383;50.928;12.116;2023-04-22T00:08:08;98506.41;;;6.37;85.94
18509;BME280;9383;50.928;12.116;2023-04-22T00:10:34;98503.78;;;6.35;86.67
18509;BME280;9383;50.928;12.116;2023-04-22T00:13:01;98501.25;;;6.32;86.88
18509;BME280;9383;50.928;12.116;2023-04-22T00:15:28;98505.69;;;6.30;87.02
18509;BME280;9383;50.928;12.116;2023-04-22T00:17:57;98504.88;;;6.26;87.31
18509;BME280;9383;50.928;12.116;2023-04-22T00:20:24;98500.63;;;6.22;87.50
18509;BME280;9383;50.928;12.116;2023-04-22T00:22:51;98498.03;;;6.19;87.30
18509;BME280;9383;50.928;12.116;2023-04-22T00:25:18;98501.66;;;6.15;86.82
18509;BME280;9383;50.928;12.116;2023-04-22T00:27:45;98494.78;;;6.09;87.13
18509;BME280;9383;50.928;12.116;2023-04-22T00:30:12;98493.06;;;6.07;87.00
18509;BME280;9383;50.928;12.116;2023-04-22T00:32:38;98489.69;;;6.01;87.20
18509;BME280;9383;50.928;12.116;2023-04-22T00:35:06;98487.94;;;5.99;87.72
18509;BME280;9383;50.928;12.116;2023-04-22T00:37:33;98488.91;;;5.96;87.72
18509;BME280;9383;50.928;12.116;2023-04-22T00:40:01;98483.69;;;5.93;87.16
18509;BME280;9383;50.928;12.116;2023-04-22T00:42:27;98479.44;;;5.89;87.54
18509;BME280;9383;50.928;12.116;2023-04-22T00:44:56;98479.50;;;5.86;87.61
18509;BME280;9383;50.928;12.116;2023-04-22T00:47:23;98472.53;;;5.83;88.41
18509;BME280;9383;50.928;12.116;2023-04-22T00:49:53;98471.72;;;5.81;89.11
18509;BME280;9383;50.928;12.116;2023-04-22T00:52:21;98477.06;;;5.78;89.16
18509;BME280;9383;50.928;12.116;2023-04-22T00:54:48;98470.91;;;5.77;88.88
18509;BME280;9383;50.928;12.116;2023-04-22T00:57:16;98475.34;;;5.75;89.75
18509;BME280;9383;50.928;12.116;2023-04-22T00:59:44;98466.63;;;5.73;89.23
18509;BME280;9383;50.928;12.116;2023-04-22T01:02:11;98464.09;;;5.70;89.41
18509;BME280;9383;50.928;12.116;2023-04-22T01:04:38;98468.47;;;5.70;89.93
18509;BME280;9383;50.928;12.116;2023-04-22T01:07:06;98463.22;;;5.68;90.18
18509;BME280;9383;50.928;12.116;2023-04-22T01:09:33;98468.53;;;5.67;90.17
18509;BME280;9383;50.928;12.116;2023-04-22T01:12:00;98469.47;;;5.64;90.28
18509;BME280;9383;50.928;12.116;2023-04-22T01:14:27;98469.53;;;5.62;90.67
18509;BME280;9383;50.928;12.116;2023-04-22T01:16:55;98471.34;;;5.59;90.33
18509;BME280;9383;50.928;12.116;2023-04-22T01:19:22;98466.19;;;5.54;90.76
18509;BME280;9383;50.928;12.116;2023-04-22T01:21:50;98470.63;;;5.52;90.92
18509;BME280;9383;50.928;12.116;2023-04-22T01:24:18;98477.63;;;5.52;90.58
18509;BME280;9383;50.928;12.116;2023-04-22T01:26:46;98468.09;;;5.47;91.24
18509;BME280;9383;50.928;12.116;2023-04-22T01:29:13;98470.72;;;5.47;91.34
18509;BME280;9383;50.928;12.116;2023-04-22T01:31:41;98468.16;;;5.44;91.28
18509;BME280;9383;50.928;12.116;2023-04-22T01:34:08;98467.31;;;5.42;91.21
18509;BME280;9383;50.928;12.116;2023-04-22T01:36:35;98470.88;;;5.40;90.65
18509;BME280;9383;50.928;12.116;2023-04-22T01:39:02;98470.00;;;5.39;91.28
18509;BME280;9383;50.928;12.116;2023-04-22T01:41:29;98466.56;;;5.37;91.58
18509;BME280;9383;50.928;12.116;2023-04-22T01:43:58;98470.16;;;5.33;91.52
18509;BME280;9383;50.928;12.116;2023-04-22T01:46:25;98463.22;;;5.29;90.90
18509;BME280;9383;50.928;12.116;2023-04-22T01:48:52;98470.31;;;5.25;91.20
18509;BME280;9383;50.928;12.116;2023-04-22T01:51:19;98467.72;;;5.24;91.13
18509;BME280;9383;50.928;12.116;2023-04-22T01:53:47;98468.63;;;5.23;91.63
18509;BME280;9383;50.928;12.116;2023-04-22T01:56:14;98461.66;;;5.20;91.54
18509;BME280;9383;50.928;12.116;2023-04-22T01:58:46;98459.94;;;5.17;91.56
18509;BME280;9383;50.928;12.116;2023-04-22T02:01:14;98466.09;;;5.16;91.67
18509;BME280;9383;50.928;12.116;2023-04-22T02:03:41;98469.63;;;5.15;91.88
18509;BME280;9383;50.928;12.116;2023-04-22T02:06:08;98468.78;;;5.13;92.04
18509;BME280;9383;50.928;12.116;2023-04-22T02:08:35;98476.81;;;5.07;91.88
18509;BME280;9383;50.928;12.116;2023-04-22T02:11:01;98480.34;;;5.06;92.38
18509;BME280;9383;50.928;12.116;2023-04-22T02:13:36;98474.28;;;5.01;92.05
18509;BME280;9383;50.928;12.116;2023-04-22T02:16:03;98482.25;;;4.98;92.08
18509;BME280;9383;50.928;12.116;2023-04-22T02:18:31;98479.69;;;4.95;91.72
18509;BME280;9383;50.928;12.116;2023-04-22T02:20:57;98477.97;;;4.92;92.11
18509;BME280;9383;50.928;12.116;2023-04-22T02:23:24;98478.00;;;4.90;92.57
18509;BME280;9383;50.928;12.116;2023-04-22T02:25:52;98480.63;;;4.90;93.25
18509;BME280;9383;50.928;12.116;2023-04-22T02:28:19;98478.06;;;4.87;93.16
18509;BME280;9383;50.928;12.116;2023-04-22T02:30:46;98469.44;;;4.81;93.40
18509;BME280;9383;50.928;12.116;2023-04-22T02:33:13;98479.97;;;4.79;93.30
18509;BME280;9383;50.928;12.116;2023-04-22T02:35:39;98469.53;;;4.76;93.37
18509;BME280;9383;50.928;12.116;2023-04-22T02:38:06;98475.69;;;4.73;93.90
18509;BME280;9383;50.928;12.116;2023-04-22T02:40:33;98473.09;;;4.72;93.77
18509;BME280;9383;50.928;12.116;2023-04-22T02:43:00;98474.91;;;4.70;93.77
18509;BME280;9383;50.928;12.116;2023-04-22T02:45:27;98472.28;;;4.68;94.13
18509;BME280;9383;50.928;12.116;2023-04-22T02:47:53;98468.00;;;4.64;94.41
18509;BME280;9383;50.928;12.116;2023-04-22T02:50:20;98462.78;;;4.62;93.87
18509;BME280;9383;50.928;12.116;2023-04-22T02:52:48;98459.38;;;4.57;93.41
18509;BME280;9383;50.928;12.116;2023-04-22T02:55:15;98466.41;;;4.55;94.17
18509;BME280;9383;50.928;12.116;2023-04-22T02:57:43;98462.94;;;4.53;94.14
18509;BME280;9383;50.928;12.116;2023-04-22T03:00:10;98469.97;;;4.51;93.85
18509;BME280;9383;50.928;12.116;2023-04-22T03:02:37;98470.94;;;4.47;94.49
18509;BME280;9383;50.928;12.116;2023-04-22T03:05:05;98469.25;;;4.43;94.21
18509;BME280;9383;50.928;12.116;2023-04-22T03:07:31;98471.91;;;4.40;94.16
18509;BME280;9383;50.928;12.116;2023-04-22T03:09:58;98459.75;;;4.35;94.59
18509;BME280;9383;50.928;12.116;2023-04-22T03:12:25;98460.72;;;4.31;93.65
18509;BME280;9383;50.928;12.116;2023-04-22T03:14:53;98462.50;;;4.28;94.49
18509;BME280;9383;50.928;12.116;2023-04-22T03:17:20;98466.94;;;4.26;94.01
18509;BME280;9383;50.928;12.116;2023-04-22T03:19:47;98472.19;;;4.24;94.58
18509;BME280;9383;50.928;12.116;2023-04-22T03:22:14;98465.22;;;4.21;94.41
18509;BME280;9383;50.928;12.116;2023-04-22T03:24:44;98468.78;;;4.19;94.77
18509;BME280;9383;50.928;12.116;2023-04-22T03:27:11;98458.31;;;4.16;94.98
18509;BME280;9383;50.928;12.116;2023-04-22T03:29:38;98454.88;;;4.14;94.74
18509;BME280;9383;50.928;12.116;2023-04-22T03:32:05;98454.03;;;4.10;94.70
18509;BME280;9383;50.928;12.116;2023-04-22T03:34:32;98460.22;;;4.07;94.64
18509;BME280;9383;50.928;12.116;2023-04-22T03:36:59;98256.00;;;2.84;94.72
18509;BME280;9383;50.928;12.116;2023-04-22T03:39:26;98459.47;;;4.01;94.72
18509;BME280;9383;50.928;12.116;2023-04-22T03:41:53;98461.28;;;3.96;94.62
18509;BME280;9383;50.928;12.116;2023-04-22T03:44:21;98458.69;;;3.94;94.80
18509;BME280;9383;50.928;12.116;2023-04-22T03:46:47;98457.88;;;3.92;94.54
18509;BME280;9383;50.928;12.116;2023-04-22T03:49:14;98449.16;;;3.88;94.82
18509;BME280;9383;50.928;12.116;2023-04-22T03:51:41;98453.59;;;3.85;94.88
18509;BME280;9383;50.928;12.116;2023-04-22T03:54:07;98450.97;;;3.83;94.63
18509;BME280;9383;50.928;12.116;2023-04-22T03:56:35;98449.31;;;3.79;94.57
18509;BME280;9383;50.928;12.116;2023-04-22T03:59:03;98446.69;;;3.77;94.92
18509;BME280;9383;50.928;12.116;2023-04-22T04:01:30;98447.63;;;3.75;95.13
18509;BME280;9383;50.928;12.116;2023-04-22T04:03:57;98445.03;;;3.73;95.08
18509;BME280;9383;50.928;12.116;2023-04-22T04:06:24;98452.00;;;3.74;96.21
18509;BME280;9383;50.928;12.116;2023-04-22T04:08:50;98445.91;;;3.74;96.35
18509;BME280;9383;50.928;12.116;2023-04-22T04:11:21;98452.88;;;3.73;96.88
18509;BME280;9383;50.928;12.116;2023-04-22T04:13:48;98457.25;;;3.73;96.91
18509;BME280;9383;50.928;12.116;2023-04-22T04:16:16;98459.88;;;3.73;96.47
18509;BME280;9383;50.928;12.116;2023-04-22T04:18:42;98455.50;;;3.73;96.62
18509;BME280;9383;50.928;12.116;2023-04-22T04:21:09;98454.63;;;3.73;97.09
18509;BME280;9383;50.928;12.116;2023-04-22T04:23:36;98462.50;;;3.73;97.45
18509;BME280;9383;50.928;12.116;2023-04-22T04:26:04;98457.25;;;3.73;97.87
18509;BME280;9383;50.928;12.116;2023-04-22T04:28:31;98471.22;;;3.73;97.28
18509;BME280;9383;50.928;12.116;2023-04-22T04:31:00;98464.25;;;3.72;97.46
18509;BME280;9383;50.928;12.116;2023-04-22T04:33:29;98464.25;;;3.74;97.39
18509;BME280;9383;50.928;12.116;2023-04-22T04:35:58;98464.22;;;3.75;97.64
18509;BME280;9383;50.928;12.116;2023-04-22T04:38:25;98465.03;;;3.77;97.65
18509;BME280;9383;50.928;12.116;2023-04-22T04:40:52;98461.53;;;3.80;98.12
18509;BME280;9383;50.928;12.116;2023-04-22T04:43:20;98471.06;;;3.84;98.63
18509;BME280;9383;50.928;12.116;2023-04-22T04:45:51;98465.75;;;3.89;99.02
18509;BME280;9383;50.928;12.116;2023-04-22T04:48:18;98471.81;;;3.92;98.71
18509;BME280;9383;50.928;12.116;2023-04-22T04:50:45;98466.50;;;3.97;99.05
18509;BME280;9383;50.928;12.116;2023-04-22T04:53:12;98469.97;;;4.01;98.93
18509;BME280;9383;50.928;12.116;2023-04-22T04:55:39;98472.50;;;4.05;99.48
18509;BME280;9383;50.928;12.116;2023-04-22T04:58:05;98474.19;;;4.10;99.03
18509;BME280;9383;50.928;12.116;2023-04-22T05:00:32;98472.34;;;4.15;99.28
18509;BME280;9383;50.928;12.116;2023-04-22T05:02:59;98473.09;;;4.21;100.00
18509;BME280;9383;50.928;12.116;2023-04-22T05:05:27;98479.06;;;4.31;99.62
18509;BME280;9383;50.928;12.116;2023-04-22T05:07:53;98480.69;;;4.39;99.89
18509;BME280;9383;50.928;12.116;2023-04-22T05:10:20;98483.22;;;4.45;100.00
18509;BME280;9383;50.928;12.116;2023-04-22T05:12:47;98486.56;;;4.53;100.00
18509;BME280;9383;50.928;12.116;2023-04-22T05:15:14;98477.72;;;4.59;99.54
18509;BME280;9383;50.928;12.116;2023-04-22T05:17:41;98481.13;;;4.64;100.00
18509;BME280;9383;50.928;12.116;2023-04-22T05:20:08;98481.91;;;4.68;100.00
18509;BME280;9383;50.928;12.116;2023-04-22T05:22:36;98480.94;;;4.73;100.00
18509;BME280;9383;50.928;12.116;2023-04-22T05:25:03;98475.59;;;4.79;100.00
18509;BME280;9383;50.928;12.116;2023-04-22T05:27:30;98479.84;;;4.85;100.00
18509;BME280;9383;50.928;12.116;2023-04-22T05:29:57;98484.97;;;4.91;100.00
18509;BME280;9383;50.928;12.116;2023-04-22T05:32:23;98481.34;;;4.99;100.00
18509;BME280;9383;50.928;12.116;2023-04-22T05:34:50;98479.47;;;5.04;100.00
18509;BME280;9383;50.928;12.116;2023-04-22T05:37:16;98481.94;;;5.12;100.00
18509;BME280;9383;50.928;12.116;2023-04-22T05:39:44;98480.09;;;5.18;100.00
18509;BME280;9383;50.928;12.116;2023-04-22T05:42:10;98477.31;;;5.25;100.00
18509;BME280;9383;50.928;12.116;2023-04-22T05:44:37;98478.94;;;5.32;100.00
18509;BME280;9383;50.928;12.116;2023-04-22T05:47:04;98480.53;;;5.39;100.00
18509;BME280;9383;50.928;12.116;2023-04-22T05:49:30;98479.44;;;5.48;100.00
18509;BME280;9383;50.928;12.116;2023-04-22T05:52:04;98482.78;;;5.56;100.00
18509;BME280;9383;50.928;12.116;2023-04-22T05:54:31;98483.41;;;5.68;100.00
18509;BME280;9383;50.928;12.116;2023-04-22T05:56:58;98471.78;;;5.78;100.00
18509;BME280;9383;50.928;12.116;2023-04-22T05:59:25;98476.78;;;5.90;100.00
18509;BME280;9383;50.928;12.116;2023-04-22T06:01:51;98480.88;;;6.02;100.00
18509;BME280;9383;50.928;12.116;2023-04-22T06:04:20;98478.84;;;6.15;100.00
18509;BME280;9383;50.928;12.116;2023-04-22T06:06:47;98477.56;;;6.30;100.00
18509;BME280;9383;50.928;12.116;2023-04-22T06:09:14;98474.56;;;6.46;100.00
18509;BME280;9383;50.928;12.116;2023-04-22T06:11:41;98470.63;;;6.63;100.00
18509;BME280;9383;50.928;12.116;2023-04-22T06:14:08;98471.94;;;6.79;100.00
18509;BME280;9383;50.928;12.116;2023-04-22T06:16:34;98471.44;;;6.98;100.00
18509;BME280;9383;50.928;12.116;2023-04-22T06:19:01;98468.28;;;7.16;100.00
18509;BME280;9383;50.928;12.116;2023-04-22T06:21:27;98472.97;;;7.37;100.00
18509;BME280;9383;50.928;12.116;2023-04-22T06:23:54;98467.03;;;7.60;100.00
18509;BME280;9383;50.928;12.116;2023-04-22T06:26:21;98464.56;;;7.82;100.00
18509;BME280;9383;50.928;12.116;2023-04-22T06:28:49;98467.34;;;8.06;100.00
18509;BME280;9383;50.928;12.116;2023-04-22T06:31:26;98464.84;;;8.28;100.00
18509;BME280;9383;50.928;12.116;2023-04-22T06:33:53;98464.16;;;8.49;100.00
18509;BME280;9383;50.928;12.116;2023-04-22T06:36:20;98463.47;;;8.70;100.00
18509;BME280;9383;50.928;12.116;2023-04-22T06:38:47;98464.38;;;8.95;100.00
18509;BME280;9383;50.928;12.116;2023-04-22T06:41:13;98460.94;;;9.17;100.00
18509;BME280;9383;50.928;12.116;2023-04-22T06:43:41;98457.50;;;9.38;100.00
18509;BME280;9383;50.928;12.116;2023-04-22T06:46:15;98459.22;;;9.63;100.00
18509;BME280;9383;50.928;12.116;2023-04-22T06:48:42;98455.59;;;9.88;100.00
18509;BME280;9383;50.928;12.116;2023-04-22T06:51:09;98458.16;;;10.12;100.00
18509;BME280;9383;50.928;12.116;2023-04-22T06:53:35;98455.41;;;10.36;100.00
18509;BME280;9383;50.928;12.116;2023-04-22T06:56:07;98456.25;;;10.59;100.00
18509;BME280;9383;50.928;12.116;2023-04-22T06:58:34;98457.78;;;10.85;98.80
18509;BME280;9383;50.928;12.116;2023-04-22T07:01:01;98466.38;;;11.11;97.99
18509;BME280;9383;50.928;12.116;2023-04-22T07:03:29;98460.78;;;11.36;96.07
18509;BME280;9383;50.928;12.116;2023-04-22T07:05:56;98457.81;;;11.63;95.47
18509;BME280;9383;50.928;12.116;2023-04-22T07:08:22;98454.03;;;11.87;94.80
18509;BME280;9383;50.928;12.116;2023-04-22T07:10:50;98457.97;;;12.16;94.66
18509;BME280;9383;50.928;12.116;2023-04-22T07:13:16;98457.53;;;12.43;93.92
18509;BME280;9383;50.928;12.116;2023-04-22T07:15:43;98457.22;;;12.67;91.66
18509;BME280;9383;50.928;12.116;2023-04-22T07:18:11;98462.34;;;12.88;88.99
18509;BME280;9383;50.928;12.116;2023-04-22T07:20:39;98446.28;;;13.07;88.35
18509;BME280;9383;50.928;12.116;2023-04-22T07:23:07;98446.84;;;13.30;87.45
18509;BME280;9383;50.928;12.116;2023-04-22T07:25:34;98442.97;;;13.53;86.27
18509;BME280;9383;50.928;12.116;2023-04-22T07:28:02;98439.97;;;13.75;84.25
18509;BME280;9383;50.928;12.116;2023-04-22T07:30:29;98438.84;;;13.96;82.47
18509;BME280;9383;50.928;12.116;2023-04-22T07:32:56;98442.31;;;14.12;79.81
18509;BME280;9383;50.928;12.116;2023-04-22T07:35:22;98439.44;;;14.31;79.58
18509;BME280;9383;50.928;12.116;2023-04-22T07:37:49;98438.19;;;14.53;78.88
18509;BME280;9383;50.928;12.116;2023-04-22T07:40:18;98446.91;;;14.71;77.37
18509;BME280;9383;50.928;12.116;2023-04-22T07:42:45;98427.72;;;14.81;75.21
18509;BME280;9383;50.928;12.116;2023-04-22T07:45:12;98439.44;;;15.07;74.65
18509;BME280;9383;50.928;12.116;2023-04-22T07:47:40;98433.94;;;15.25;74.08
18509;BME280;9383;50.928;12.116;2023-04-22T07:50:07;98419.69;;;15.39;73.83
18509;BME280;9383;50.928;12.116;2023-04-22T07:52:34;98417.16;;;15.65;70.46
18509;BME280;9383;50.928;12.116;2023-04-22T07:55:03;98421.41;;;15.82;68.01
18509;BME280;9383;50.928;12.116;2023-04-22T07:57:30;98425.69;;;15.99;68.16
18509;BME280;9383;50.928;12.116;2023-04-22T08:00:01;98429.28;;;16.12;63.67
18509;BME280;9383;50.928;12.116;2023-04-22T08:02:28;98426.75;;;16.24;59.83
18509;BME280;9383;50.928;12.116;2023-04-22T08:04:54;98420.34;;;16.39;61.76
18509;BME280;9383;50.928;12.116;2023-04-22T08:07:21;98418.69;;;16.51;62.47
18509;BME280;9383;50.928;12.116;2023-04-22T08:09:49;98413.34;;;16.64;62.11
18509;BME280;9383;50.928;12.116;2023-04-22T08:12:16;98416.88;;;16.78;61.93
18509;BME280;9383;50.928;12.116;2023-04-22T08:14:44;98417.13;;;16.87;59.31
18509;BME280;9383;50.928;12.116;2023-04-22T08:17:10;98408.53;;;16.95;56.13
18509;BME280;9383;50.928;12.116;2023-04-22T08:19:37;98407.06;;;17.04;55.83
18509;BME280;9383;50.928;12.116;2023-04-22T08:22:04;98405.13;;;17.19;58.21
18509;BME280;9383;50.928;12.116;2023-04-22T08:24:30;98400.63;;;17.33;57.97
18509;BME280;9383;50.928;12.116;2023-04-22T08:26:58;98395.94;;;17.48;57.87
18509;BME280;9383;50.928;12.116;2023-04-22T08:29:24;98393.88;;;17.64;57.44
18509;BME280;9383;50.928;12.116;2023-04-22T08:31:51;98399.19;;;17.77;55.20
18509;BME280;9383;50.928;12.116;2023-04-22T08:34:18;98399.25;;;17.89;55.90
18509;BME280;9383;50.928;12.116;2023-04-22T08:36:45;98402.97;;;17.99;54.83
18509;BME280;9383;50.928;12.116;2023-04-22T08:39:11;98408.41;;;18.10;54.50
18509;BME280;9383;50.928;12.116;2023-04-22T08:41:38;98410.28;;;18.21;53.67
18509;BME280;9383;50.928;12.116;2023-04-22T08:44:07;98406.28;;;18.27;52.05
18509;BME280;9383;50.928;12.116;2023-04-22T08:46:35;98405.47;;;18.38;52.44
18509;BME280;9383;50.928;12.116;2023-04-22T08:49:04;98412.09;;;18.45;51.00
18509;BME280;9383;50.928;12.116;2023-04-22T08:51:32;98407.59;;;18.46;47.28
18509;BME280;9383;50.928;12.116;2023-04-22T08:54:01;98409.88;;;18.50;47.52
18509;BME280;9383;50.928;12.116;2023-04-22T08:56:28;98406.41;;;18.61;50.14
18509;BME280;9383;50.928;12.116;2023-04-22T08:58:57;98400.28;;;18.70;47.64
18509;BME280;9383;50.928;12.116;2023-04-22T09:01:25;98399.09;;;18.75;46.55
18509;BME280;9383;50.928;12.116;2023-04-22T09:03:53;98400.31;;;18.82;47.27
18509;BME280;9383;50.928;12.116;2023-04-22T09:06:22;98401.66;;;18.88;45.51
18509;BME280;9383;50.928;12.116;2023-04-22T09:08:49;98392.06;;;18.96;47.32
18509;BME280;9383;50.928;12.116;2023-04-22T09:11:17;98388.31;;;19.10;47.51
18509;BME280;9383;50.928;12.116;2023-04-22T09:13:43;98389.16;;;19.22;47.92
18509;BME280;9383;50.928;12.116;2023-04-22T09:16:10;98391.97;;;19.32;45.94
18509;BME280;9383;50.928;12.116;2023-04-22T09:18:43;98377.28;;;19.48;46.50
18509;BME280;9383;50.928;12.116;2023-04-22T09:21:11;98386.06;;;19.61;46.48
18509;BME280;9383;50.928;12.116;2023-04-22T09:23:51;98385.31;;;19.71;42.51
18509;BME280;9383;50.928;12.116;2023-04-22T09:26:19;98374.28;;;19.74;42.60
18509;BME280;9383;50.928;12.116;2023-04-22T09:28:54;98374.66;;;19.80;42.61
18509;BME280;9383;50.928;12.116;2023-04-22T09:31:24;98370.34;;;19.89;43.43
18509;BME280;9383;50.928;12.116;2023-04-22T09:33:54;98375.09;;;19.97;41.67
18509;BME280;9383;50.928;12.116;2023-04-22T09:36:29;98383.66;;;20.02;40.92
18509;BME280;9383;50.928;12.116;2023-04-22T09:39:03;98367.13;;;20.07;40.34
18509;BME280;9383;50.928;12.116;2023-04-22T09:41:38;98372.31;;;20.20;43.02
18509;BME280;9383;50.928;12.116;2023-04-22T09:44:10;98377.53;;;20.33;42.80
18509;BME280;9383;50.928;12.116;2023-04-22T09:46:42;98376.34;;;20.47;41.26
18509;BME280;9383;50.928;12.116;2023-04-22T09:49:08;98370.56;;;20.51;41.35
18509;BME280;9383;50.928;12.116;2023-04-22T09:51:40;98378.81;;;20.50;38.56
18509;BME280;9383;50.928;12.116;2023-04-22T09:54:10;98373.41;;;20.50;38.84
18509;BME280;9383;50.928;12.116;2023-04-22T09:56:51;98372.03;;;20.56;40.44
18509;BME280;9383;50.928;12.116;2023-04-22T09:59:19;98369.28;;;20.67;40.67
18509;BME280;9383;50.928;12.116;2023-04-22T10:02:00;98363.78;;;20.78;38.55
18509;BME280;9383;50.928;12.116;2023-04-22T10:04:29;98365.13;;;20.84;38.50
18509;BME280;9383;50.928;12.116;2023-04-22T10:06:57;98363.91;;;20.88;37.56
18509;BME280;9383;50.928;12.116;2023-04-22T10:09:25;98359.06;;;20.92;38.61
18509;BME280;9383;50.928;12.116;2023-04-22T10:11:54;98352.59;;;21.04;39.32
18509;BME280;9383;50.928;12.116;2023-04-22T10:14:24;98349.41;;;21.20;40.02
18509;BME280;9383;50.928;12.116;2023-04-22T10:16:55;98347.88;;;21.28;37.26
18509;BME280;9383;50.928;12.116;2023-04-22T10:19:25;98347.59;;;21.31;35.91
18509;BME280;9383;50.928;12.116;2023-04-22T10:22:00;98342.09;;;21.32;36.11
18509;BME280;9383;50.928;12.116;2023-04-22T10:24:33;98345.22;;;21.38;38.07
18509;BME280;9383;50.928;12.116;2023-04-22T10:27:02;98336.53;;;21.34;35.94
18509;BME280;9383;50.928;12.116;2023-04-22T10:29:39;98335.84;;;21.42;35.80
18509;BME280;9383;50.928;12.116;2023-04-22T10:32:27;98330.50;;;21.52;37.80
18509;BME280;9383;50.928;12.116;2023-04-22T10:35:12;98341.16;;;21.63;37.44
18509;BME280;9383;50.928;12.116;2023-04-22T10:37:42;98333.41;;;21.80;38.74
18509;BME280;9383;50.928;12.116;2023-04-22T10:40:17;98332.56;;;21.99;38.50
18509;BME280;9383;50.928;12.116;2023-04-22T10:42:50;98322.03;;;22.15;39.08
18509;BME280;9383;50.928;12.116;2023-04-22T10:45:19;98325.44;;;22.27;38.14
18509;BME280;9383;50.928;12.116;2023-04-22T10:47:50;98320.72;;;22.39;37.56
18509;BME280;9383;50.928;12.116;2023-04-22T10:53:33;98322.84;;;22.35;36.69
18509;BME280;9383;50.928;12.116;2023-04-22T10:56:15;98315.06;;;22.32;35.21
18509;BME280;9383;50.928;12.116;2023-04-22T10:58:43;98311.94;;;22.27;36.54
18509;BME280;9383;50.928;12.116;2023-04-22T11:01:14;98317.19;;;22.19;34.31
18509;BME280;9383;50.928;12.116;2023-04-22T11:03:42;98308.53;;;22.25;35.38
18509;BME280;9383;50.928;12.116;2023-04-22T11:06:15;98306.94;;;22.32;35.80
18509;BME280;9383;50.928;12.116;2023-04-22T11:08:49;98303.69;;;22.39;37.29
18509;BME280;9383;50.928;12.116;2023-04-22T11:11:17;98301.38;;;22.44;37.05
18509;BME280;9383;50.928;12.116;2023-04-22T11:13:45;98302.38;;;22.53;37.15
18509;BME280;9383;50.928;12.116;2023-04-22T11:16:12;98301.81;;;22.59;36.71
18509;BME280;9383;50.928;12.116;2023-04-22T11:18:39;98289.00;;;22.61;36.19
18509;BME280;9383;50.928;12.116;2023-04-22T11:21:07;98302.25;;;22.54;34.64
18509;BME280;9383;50.928;12.116;2023-04-22T11:23:35;98297.81;;;22.43;33.86
18509;BME280;9383;50.928;12.116;2023-04-22T11:26:04;98301.53;;;22.42;36.91
18509;BME280;9383;50.928;12.116;2023-04-22T11:28:31;98299.81;;;22.41;35.69
18509;BME280;9383;50.928;12.116;2023-04-22T11:31:07;98293.59;;;22.41;35.96
18509;BME280;9383;50.928;12.116;2023-04-22T11:33:37;98298.28;;;22.29;35.75
18509;BME280;9383;50.928;12.116;2023-04-22T11:36:11;98288.47;;;22.28;37.52
18509;BME280;9383;50.928;12.116;2023-04-22T11:38:38;98291.78;;;22.22;35.72
18509;BME280;9383;50.928;12.116;2023-04-22T11:41:05;98291.19;;;22.18;37.31
18509;BME280;9383;50.928;12.116;2023-04-22T11:43:32;98287.91;;;22.24;36.94
18509;BME280;9383;50.928;12.116;2023-04-22T11:46:00;98278.97;;;22.24;35.71
18509;BME280;9383;50.928;12.116;2023-04-22T11:48:26;98279.81;;;22.24;35.44
18509;BME280;9383;50.928;12.116;2023-04-22T11:51:10;98268.31;;;22.22;37.18
18509;BME280;9383;50.928;12.116;2023-04-22T11:53:38;98276.16;;;22.25;38.00
18509;BME280;9383;50.928;12.116;2023-04-22T11:56:06;98267.63;;;22.20;35.91
18509;BME280;9383;50.928;12.116;2023-04-22T11:58:40;98218.94;;;21.92;36.53
18509;BME280;9383;50.928;12.116;2023-04-22T12:01:11;98265.47;;;22.24;35.33
18509;BME280;9383;50.928;12.116;2023-04-22T12:03:39;98263.47;;;22.26;36.72
18509;BME280;9383;50.928;12.116;2023-04-22T12:06:21;98260.78;;;22.26;36.54
18509;BME280;9383;50.928;12.116;2023-04-22T12:08:48;98258.94;;;22.26;37.01
18509;BME280;9383;50.928;12.116;2023-04-22T12:11:15;98268.19;;;22.24;36.88
18509;BME280;9383;50.928;12.116;2023-04-22T12:13:43;98270.59;;;22.17;34.86
18509;BME280;9383;50.928;12.116;2023-04-22T12:16:19;98262.94;;;22.12;34.43
18509;BME280;9383;50.928;12.116;2023-04-22T12:18:54;98265.78;;;22.11;35.28
18509;BME280;9383;50.928;12.116;2023-04-22T12:21:24;98267.38;;;22.03;33.78
18509;BME280;9383;50.928;12.116;2023-04-22T12:23:56;98262.38;;;21.99;33.81
18509;BME280;9383;50.928;12.116;2023-04-22T12:26:25;98258.72;;;21.90;33.67
18509;BME280;9383;50.928;12.116;2023-04-22T12:28:53;98247.06;;;21.89;36.36
18509;BME280;9383;50.928;12.116;2023-04-22T12:31:20;98256.84;;;21.90;36.38
18509;BME280;9383;50.928;12.116;2023-04-22T12:33:47;98260.41;;;21.91;36.88
18509;BME280;9383;50.928;12.116;2023-04-22T12:36:16;98247.91;;;21.90;35.10
18509;BME280;9383;50.928;12.116;2023-04-22T12:38:43;98255.16;;;21.89;34.67
18509;BME280;9383;50.928;12.116;2023-04-22T12:41:10;98245.22;;;21.90;34.40
18509;BME280;9383;50.928;12.116;2023-04-22T12:43:37;98246.06;;;21.90;33.49
18509;BME280;9383;50.928;12.116;2023-04-22T12:46:06;98253.03;;;21.93;35.12
18509;BME280;9383;50.928;12.116;2023-04-22T12:48:33;98247.31;;;21.96;34.20
18509;BME280;9383;50.928;12.116;2023-04-22T12:51:03;98243.94;;;21.94;33.53
18509;BME280;9383;50.928;12.116;2023-04-22T12:53:30;98234.69;;;21.97;33.71
18509;BME280;9383;50.928;12.116;2023-04-22T12:55:57;98235.41;;;21.99;34.49
18509;BME280;9383;50.928;12.116;2023-04-22T12:58:24;98237.50;;;22.05;37.15
18509;BME280;9383;50.928;12.116;2023-04-22T13:00:51;98235.38;;;22.09;37.09
18509;BME280;9383;50.928;12.116;2023-04-22T13:03:18;98216.06;;;22.13;36.52
18509;BME280;9383;50.928;12.116;2023-04-22T13:05:45;98229.41;;;22.15;37.13
18509;BME280;9383;50.928;12.116;2023-04-22T13:08:11;98215.63;;;22.18;37.36
18509;BME280;9383;50.928;12.116;2023-04-22T13:10:38;98220.88;;;22.19;34.93
18509;BME280;9383;50.928;12.116;2023-04-22T13:13:06;98215.63;;;22.18;34.51